Time;durP1;ratioP1;P1;durP2;ratioP2;P2;SDS_P1;SDS_P2;PMS_P1;PMS_P2;Temp;Humidity;BMP_temperature;BMP_pressure;BME280_temperature;BME280_humidity;BME280_pressure;Samples;Min_cycle;Max_cycle;Signal;HPM_P1;HPM_P2
2023/09/07 00:00:41;;;;;;;3.15;2.55;;;;;;;16.60;100.00;97972.50;18280010;32;20388;-56
2023/09/07 00:10:44;;;;;;;5.82;3.15;;;;;;;16.47;100.00;97970.56;18293084;32;20125;-56
2023/09/07 00:20:46;;;;;;;5.82;3.20;;;;;;;16.36;100.00;97972.66;18292552;32;20496;-56
2023/09/07 00:30:48;;;;;;;5.82;2.97;;;;;;;16.26;100.00;97969.00;18292024;32;20058;-55
2023/09/07 00:40:51;;;;;;;4.03;2.78;;;;;;;16.19;100.00;97967.78;18278190;32;20068;-55
2023/09/07 00:50:54;;;;;;;6.07;2.95;;;;;;;16.12;100.00;97967.38;18299606;32;20096;-56
2023/09/07 01:00:57;;;;;;;10.07;3.13;;;;;;;16.07;100.00;97965.53;18301891;32;20460;-56
2023/09/07 01:10:59;;;;;;;4.83;2.93;;;;;;;16.03;100.00;97964.50;18287455;32;20109;-56
2023/09/07 01:21:03;;;;;;;5.62;2.70;;;;;;;16.00;100.00;97965.09;18300714;32;20054;-56
2023/09/07 01:31:06;;;;;;;5.95;3.00;;;;;;;15.98;100.00;97959.94;18300294;32;20046;-55
2023/09/07 01:41:09;;;;;;;4.20;2.93;;;;;;;15.89;100.00;97959.00;18300028;32;20058;-55
2023/09/07 01:51:11;;;;;;;4.97;3.08;;;;;;;15.77;100.00;97956.69;18299412;32;20114;-56
2023/09/07 02:01:30;;;;;;;3.40;2.72;;;;;;;15.71;100.00;97955.97;18284318;32;20175;-55
2023/09/07 02:11:33;;;;;;;5.65;3.40;;;;;;;15.62;100.00;97954.22;18298531;32;20174;-54
2023/09/07 02:21:35;;;;;;;3.95;3.12;;;;;;;15.53;100.00;97941.25;18284143;32;20068;-55
2023/09/07 02:31:37;;;;;;;4.65;3.00;;;;;;;15.46;100.00;97943.56;18297338;32;20430;-55
2023/09/07 02:41:40;;;;;;;6.95;3.12;;;;;;;15.38;100.00;97939.56;18283232;32;20102;-55
2023/09/07 02:51:42;;;;;;;3.78;3.05;;;;;;;15.33;100.00;97952.47;18296317;32;20057;-55
2023/09/07 03:01:45;;;;;;;5.78;3.10;;;;;;;15.25;100.00;97943.03;18296059;32;20068;-56
2023/09/07 03:11:48;;;;;;;5.85;3.28;;;;;;;15.17;100.00;97949.13;18281672;32;20438;-55
2023/09/07 03:21:50;;;;;;;5.28;3.12;;;;;;;15.10;100.00;97949.47;18280687;32;20057;-57
2023/09/07 03:31:52;;;;;;;9.50;2.60;;;;;;;15.05;100.00;97957.75;18294753;32;20102;-56
2023/09/07 03:41:55;;;;;;;3.47;2.45;;;;;;;14.99;100.00;97953.44;18293847;32;20092;-56
2023/09/07 03:51:57;;;;;;;3.97;2.80;;;;;;;14.93;100.00;97949.19;18293705;32;20088;-56
2023/09/07 04:01:59;;;;;;;3.42;2.58;;;;;;;14.87;100.00;97951.97;18293621;32;20054;-56
2023/09/07 04:12:03;;;;;;;6.72;2.85;;;;;;;14.80;100.00;97942.53;18279468;32;20105;-56
2023/09/07 04:22:06;;;;;;;4.57;2.80;;;;;;;14.76;100.00;97950.47;18296985;32;20054;-56
2023/09/07 04:32:08;;;;;;;4.28;2.97;;;;;;;14.68;100.00;97954.62;18303117;32;20058;-55
2023/09/07 04:42:11;;;;;;;4.28;2.95;;;;;;;14.66;100.00;97956.03;18302509;32;20054;-56
2023/09/07 04:52:14;;;;;;;4.20;3.00;;;;;;;14.62;100.00;97960.41;18302778;32;20155;-56
2023/09/07 05:02:17;;;;;;;5.57;2.97;;;;;;;14.58;100.00;97960.97;18301569;32;20121;-55
2023/09/07 05:12:20;;;;;;;5.60;3.10;;;;;;;14.55;100.00;97967.00;18288388;32;20098;-55
2023/09/07 05:22:23;;;;;;;5.07;2.92;;;;;;;14.51;100.00;97965.13;18286937;32;20062;-56
2023/09/07 05:32:26;;;;;;;4.85;3.20;;;;;;;14.53;100.00;97974.63;18300213;32;20460;-56
2023/09/07 05:42:28;;;;;;;7.07;3.45;;;;;;;14.57;100.00;97981.13;18286163;32;20407;-56
2023/09/07 05:52:30;;;;;;;7.25;3.55;;;;;;;14.68;100.00;97992.75;18299606;32;20065;-56
2023/09/07 06:02:33;;;;;;;4.45;3.60;;;;;;;14.88;100.00;97996.31;18298840;32;20093;-56
2023/09/07 06:12:36;;;;;;;7.05;4.25;;;;;;;15.13;100.00;98002.56;18298734;32;20046;-56
2023/09/07 06:22:38;;;;;;;5.15;3.40;;;;;;;15.40;100.00;98001.94;18284015;32;20050;-55
2023/09/07 06:32:42;;;;;;;4.40;3.50;;;;;;;15.68;100.00;98004.84;18297165;32;20094;-55
2023/09/07 06:42:45;;;;;;;4.20;3.53;;;;;;;16.01;100.00;98004.91;18295930;32;20434;-55
2023/09/07 06:52:47;;;;;;;5.85;3.78;;;;;;;16.35;100.00;98004.59;18283001;32;20093;-56
2023/09/07 07:02:51;;;;;;;3.97;3.57;;;;;;;16.73;100.00;98004.47;18295894;32;20054;-56
2023/09/07 07:12:55;;;;;;;4.05;3.60;;;;;;;17.12;100.00;98026.97;18282143;32;20340;-56
2023/09/07 07:22:58;;;;;;;3.83;3.43;;;;;;;17.51;100.00;98028.31;18295495;32;20053;-56
2023/09/07 07:33:03;;;;;;;6.17;4.47;;;;;;;17.93;100.00;98029.03;18294544;32;20109;-56
2023/09/07 07:43:07;;;;;;;4.60;4.20;;;;;;;18.35;100.00;98039.84;18281413;32;20050;-56
2023/09/07 07:53:10;;;;;;;5.03;3.80;;;;;;;18.71;100.00;98036.16;18294629;32;20076;-56
2023/09/07 08:03:14;;;;;;;5.70;4.20;;;;;;;19.09;100.00;98027.50;18291569;32;20076;-56
2023/09/07 08:13:17;;;;;;;5.55;4.30;;;;;;;19.61;100.00;98040.53;18304240;32;20144;-56
2023/09/07 08:23:19;;;;;;;4.27;3.87;;;;;;;20.06;100.00;98039.44;18277742;32;20057;-56
2023/09/07 08:33:23;;;;;;;5.17;3.87;;;;;;;20.53;100.00;98040.66;18303361;32;20062;-56
2023/09/07 08:43:29;;;;;;;5.78;4.30;;;;;;;20.84;100.00;98034.16;18302629;32;20058;-56
2023/09/07 08:53:32;;;;;;;5.22;4.62;;;;;;;21.25;100.00;98018.91;18302921;32;20370;-56
2023/09/07 09:03:36;;;;;;;4.65;4.07;;;;;;;21.63;100.00;98026.31;18302114;32;20471;-56
2023/09/07 09:13:41;;;;;;;5.28;4.10;;;;;;;21.98;100.00;98018.59;18300900;32;20332;-56
2023/09/07 09:23:44;;;;;;;5.03;4.05;;;;;;;22.33;100.00;98021.03;18300992;32;20486;-56
2023/09/07 09:33:51;;;;;;;4.32;3.80;;;;;;;22.65;100.00;98013.13;18300403;32;20057;-56
2023/09/07 09:43:56;;;;;;;5.12;3.72;;;;;;;23.02;100.00;98012.34;18299581;32;20072;-57
2023/09/07 09:54:00;;;;;;;5.53;3.87;;;;;;;23.32;100.00;98015.72;18299199;32;20082;-56
2023/09/07 10:04:04;;;;;;;5.28;4.12;;;;;;;23.63;100.00;98007.97;18298803;32;20088;-57
2023/09/07 10:14:08;;;;;;;5.07;4.15;;;;;;;23.94;100.00;98006.50;18298408;32;20054;-57
2023/09/07 10:24:12;;;;;;;4.68;4.00;;;;;;;24.26;100.00;97993.59;18296917;32;20080;-56
2023/09/07 10:34:17;;;;;;;4.75;4.22;;;;;;;24.61;100.00;97989.37;18297427;32;20070;-56
2023/09/07 10:44:32;;;;;;;4.20;3.70;;;;;;;25.71;100.00;97989.66;18683150;31;20089;-57
2023/09/07 10:54:36;;;;;;;5.43;4.20;;;;;;;25.71;100.00;97989.66;18603227;31;20044;-57
2023/09/07 11:04:41;;;;;;;5.78;4.75;;;;;;;25.37;100.00;97984.56;18616652;31;20117;-57
2023/09/07 11:14:48;;;;;;;5.85;4.72;;;;;;;25.76;100.00;97969.97;18616403;31;20440;-57
2023/09/07 11:24:51;;;;;;;5.95;4.55;;;;;;;26.11;100.00;97958.03;18615553;31;20075;-57
2023/09/07 11:34:55;;;;;;;5.57;4.43;;;;;;;26.53;100.00;97956.41;18616839;31;20047;-57
2023/09/07 11:45:01;;;;;;;4.87;4.37;;;;;;;26.93;100.00;97955.12;18679885;31;20059;-57
2023/09/07 11:55:04;;;;;;;5.20;4.40;;;;;;;27.31;100.00;97949.72;18638823;31;20436;-57
2023/09/07 12:05:14;;;;;;;6.82;3.75;;;;;;;27.64;100.00;97951.81;18635111;31;20490;-57
2023/09/07 12:15:18;;;;;;;5.43;4.30;;;;;;;28.02;95.71;97949.91;18634159;31;20060;-58
2023/09/07 12:25:21;;;;;;;4.93;4.12;;;;;;;28.53;100.00;97951.25;18568122;32;20057;-58
2023/09/07 12:35:24;;;;;;;5.28;4.75;;;;;;;29.00;95.52;97940.50;18566948;32;20108;-57
2023/09/07 12:45:27;;;;;;;5.47;4.30;;;;;;;29.12;84.57;97933.03;18566890;32;20061;-58
2023/09/07 12:55:30;;;;;;;4.95;4.45;;;;;;;29.65;87.85;97935.34;18566029;32;20129;-58
2023/09/07 13:05:34;;;;;;;5.72;4.32;;;;;;;30.06;77.75;97925.94;18550707;32;20053;-57
2023/09/07 13:15:38;;;;;;;4.97;4.30;;;;;;;30.28;78.11;97915.63;18565218;32;20068;-57
2023/09/07 13:25:42;;;;;;;4.82;4.20;;;;;;;30.90;75.35;97902.50;18557576;32;20398;-57
2023/09/07 13:35:45;;;;;;;6.72;4.03;;;;;;;31.26;64.83;97896.91;18563524;32;20080;-58
2023/09/07 13:45:48;;;;;;;4.72;3.97;;;;;;;31.61;73.11;97892.41;18563154;32;20099;-58
2023/09/07 13:55:51;;;;;;;5.90;4.22;;;;;;;31.96;75.07;97885.06;18562451;32;20094;-57
2023/09/07 15:43:09;;;;;;;4.70;4.20;;;;;;;32.22;62.83;97888.50;18562051;32;20116;-58
2023/09/07 15:53:12;;;;;;;5.62;4.80;;;;;;;32.22;62.83;97888.50;18570161;32;20058;-57
2023/09/07 16:03:15;;;;;;;4.53;4.12;;;;;;;28.10;66.04;97863.84;18569398;32;20056;-57
2023/09/07 16:13:18;;;;;;;5.57;4.40;;;;;;;27.92;69.94;97866.41;18568635;32;20052;-57
2023/09/07 16:23:20;;;;;;;5.32;4.65;;;;;;;27.65;85.12;97858.16;18568229;32;20091;-57
2023/09/07 16:33:24;;;;;;;5.25;4.75;;;;;;;27.13;94.59;97857.88;18567701;32;20080;-57
2023/09/07 16:43:28;;;;;;;6.80;4.53;;;;;;;26.70;100.00;97856.09;18566741;32;20056;-57
2023/09/07 16:53:31;;;;;;;8.38;4.85;;;;;;;26.32;100.00;97857.84;18539719;32;20104;-57
2023/09/07 17:03:35;;;;;;;6.50;4.53;;;;;;;25.87;100.00;97854.66;18565644;32;20123;-57
2023/09/07 17:13:38;;;;;;;4.90;4.40;;;;;;;25.49;100.00;97855.47;18565137;32;20089;-57
2023/09/07 17:23:54;;;;;;;6.35;5.18;;;;;;;25.10;100.00;97860.97;18564741;32;20076;-57
2023/09/07 17:33:57;;;;;;;4.47;3.92;;;;;;;24.65;100.00;97863.94;18549958;32;20472;-57
2023/09/07 17:43:59;;;;;;;5.80;4.22;;;;;;;24.27;100.00;97870.06;18563369;32;20056;-56
2023/09/07 17:54:02;;;;;;;5.03;4.53;;;;;;;23.89;100.00;97877.78;18562190;32;20057;-58
2023/09/07 18:04:05;;;;;;;6.32;4.68;;;;;;;23.53;100.00;97876.78;18562330;32;20064;-57
2023/09/07 18:14:09;;;;;;;4.75;4.03;;;;;;;23.18;100.00;97877.34;18561965;32;20078;-57
2023/09/07 18:24:14;;;;;;;6.85;4.85;;;;;;;22.84;100.00;97884.94;18561302;32;20456;-57
2023/09/07 18:34:18;;;;;;;7.53;5.30;;;;;;;22.53;100.00;97897.34;18561006;32;20071;-57
2023/09/07 18:44:21;;;;;;;6.37;5.20;;;;;;;22.21;100.00;97905.31;18560248;32;20144;-57
2023/09/07 18:54:23;;;;;;;5.28;4.78;;;;;;;21.94;100.00;97910.31;18560547;32;20056;-57
2023/09/07 19:04:29;;;;;;;5.20;4.68;;;;;;;21.64;100.00;97923.38;18570569;32;20116;-57
2023/09/07 19:14:32;;;;;;;5.28;4.47;;;;;;;21.37;100.00;97925.50;18572657;32;20469;-57
2023/09/07 19:24:35;;;;;;;6.22;5.07;;;;;;;21.10;100.00;97924.88;18572360;32;20073;-57
2023/09/07 19:34:38;;;;;;;5.62;4.47;;;;;;;20.87;100.00;97924.38;18571174;32;20456;-57
2023/09/07 19:44:41;;;;;;;6.47;4.95;;;;;;;20.66;100.00;97929.75;18570110;31;20108;-56
2023/09/07 19:54:46;;;;;;;4.95;4.45;;;;;;;20.49;100.00;97941.63;18569878;32;20113;-56
2023/09/07 20:04:50;;;;;;;7.87;4.60;;;;;;;20.34;100.00;97945.72;18569590;32;20061;-56
2023/09/07 20:14:53;;;;;;;9.18;4.37;;;;;;;20.15;100.00;97949.63;18554062;31;20394;-57
2023/09/07 20:24:55;;;;;;;;;;;;;;;19.98;100.00;97947.75;18554482;32;20089;-56
2023/09/07 20:34:58;;;;;;;6.22;4.68;;;;;;;19.83;100.00;97951.00;18567697;31;20271;-56
2023/09/07 20:45:01;;;;;;;7.23;4.17;;;;;;;19.68;100.00;97948.69;18566968;32;20437;-56
2023/09/07 20:55:04;;;;;;;6.23;4.10;;;;;;;19.51;100.00;97942.06;18552544;32;20333;-57
2023/09/07 21:05:07;;;;;;;4.93;4.47;;;;;;;19.38;100.00;97937.56;18565918;32;20052;-57
2023/09/07 21:15:11;;;;;;;6.80;4.25;;;;;;;19.22;100.00;97935.28;18565287;32;20500;-56
2023/09/07 21:25:13;;;;;;;4.93;4.25;;;;;;;19.10;100.00;97935.09;18563654;32;20065;-56
2023/09/07 21:35:16;;;;;;;5.40;3.93;;;;;;;18.98;100.00;97940.41;18563611;32;20051;-56
2023/09/07 21:45:19;;;;;;;6.87;4.40;;;;;;;18.88;100.00;97936.81;18535984;32;20057;-57
2023/09/07 21:55:21;;;;;;;7.30;3.87;;;;;;;18.76;100.00;97931.12;18548664;32;20064;-56
2023/09/07 22:05:25;;;;;;;4.73;3.80;;;;;;;18.64;100.00;97934.47;18562325;32;20385;-57
2023/09/07 22:15:27;;;;;;;5.60;3.83;;;;;;;18.52;100.00;97940.53;18561784;32;20104;-57
2023/09/07 22:25:31;;;;;;;8.67;4.30;;;;;;;18.38;100.00;97929.69;18561252;31;20060;-57
2023/09/07 22:35:34;;;;;;;5.53;4.00;;;;;;;18.27;100.00;97934.63;18560577;32;20053;-57
2023/09/07 22:45:39;;;;;;;6.35;3.45;;;;;;;18.17;100.00;97934.09;18561338;32;20185;-55
2023/09/07 22:55:43;;;;;;;4.10;3.70;;;;;;;18.06;100.00;97925.31;18560160;32;20140;-56
2023/09/07 23:05:45;;;;;;;7.47;4.07;;;;;;;17.97;100.00;97924.50;18559991;32;20383;-57
2023/09/07 23:15:48;;;;;;;5.82;4.03;;;;;;;17.87;100.00;97929.06;18545625;32;20054;-56
2023/09/07 23:25:53;;;;;;;5.62;4.20;;;;;;;17.83;100.00;97936.28;18559177;32;20142;-57
2023/09/07 23:35:55;;;;;;;4.50;3.58;;;;;;;17.73;100.00;97933.78;18544827;31;20045;-57
2023/09/07 23:45:57;;;;;;;6.20;4.18;;;;;;;17.61;100.00;97948.81;18548991;32;20104;-57
2023/09/07 23:56:00;;;;;;;5.12;4.57;;;;;;;17.54;100.00;97950.34;18556150;32;20112;-56
